Hermagor, Austria

4:54 PM CET on January 26, 2015 (GMT +0100)
Presseggersee | Change Station
CLOSE
Current Station
Personal Weather Station
Location: Hermagor, KAERNTEN
Elevation: 1843 ft
Nearby Weather Stations

Elev 1843 ft 46.63 °N, 13.45 °E | Updated 14 minutes ago

Partly Cloudy
Partly Cloudy
34.7 °F
Feels Like 35 °F
N
3.0
Wind Variable Wind from ESE
Gusts 3.0 mph

Today
High -- | Low -- °F
--% Chance of Precip.
Yesterday
High -- | Low -- °F
Precip. -- in
7:37 AM 5:00 PM
Waxing Crescent, 44% visible
Pressure 30.12 in
Visibility 6.2 miles
Clouds Few 7000 ft
Windchill 35 °F
Dew Point -15 °F
Humidity 11%
Rainfall 0.00 in
Snow Depth Not available.
UV 0 out of 12
Pollen Not available.
Air Quality Not available.
Flu Activity Not available.
METAR LOWK 261520Z 09003KT 070V130 9999 FEW070 04/M07 Q1020 NOSIG

More Conditions Fewer Conditions

Pressure 30.12 in
Visibility 6.2 miles
Clouds Few 7000 ft
Windchill 35 °F
Dew Point -15 °F
Humidity 11%
Rainfall 0.00 in
Snow Depth Not available.
UV 0 out of 12
Pollen Not available.
Air Quality Not available.
Flu Activity Not available.
METAR LOWK 261520Z 09003KT 070V130 9999 FEW070 04/M07 Q1020 NOSIG

More Conditions Fewer Conditions

10-Day Weather Forecast

Almanac

Astronomy

Jan. 26, 2015 Rise Set
Actual Time
Civil Twilight
Nautical Twilight
Astronomical Twilight
Moon
Length of Visible Light
Length of Day
Tomorrow will be .
, % of the Moon is Illuminated

Today's Extremes

Country Highs Country Lows

Community

WunderPhotos

Upload Photos

1,790,249 photos uploaded!

WunderBlogs® & News

Nearby

Air Quality

  Air Quality AQ Index Pollutant
Not available.

Snow Depth

Station Depth Elevation

Earthquake Activity

City Distance Mag. Time & Date
Minimum magnitude displayed is 2.5.

Coastal Water Temperatures

Place Temperature

Nearby Weather Stations